Time;durP1;ratioP1;P1;durP2;ratioP2;P2;SDS_P1;SDS_P2;PMS_P1;PMS_P2;Temp;Humidity;BMP_temperature;BMP_pressure;BME280_temperature;BME280_humidity;BME280_pressure;Samples;Min_cycle;Max_cycle;Signal;HPM_P1;HPM_P2
2023/07/16 00:31:18;;;;;;;6.07;5.47;;;;;;;16.28;100.00;95642.59;7407416;19;20393;-94
2023/07/16 00:33:46;;;;;;;5.53;5.13;;;;;;;17.46;100.00;95826.94;7405645;19;20745;-94
2023/07/16 00:36:13;;;;;;;7.93;6.43;;;;;;;15.86;100.00;95588.06;7405626;19;20396;-94
2023/07/16 00:38:42;;;;;;;6.20;5.70;;;;;;;16.87;100.00;95741.81;7401385;19;20412;-94
2023/07/16 00:41:09;;;;;;;7.03;5.70;;;;;;;16.87;100.00;95747.16;7405027;19;20408;-95
2023/07/16 00:43:36;;;;;;;7.17;5.70;;;;;;;17.76;100.00;95904.09;7402323;19;20389;-94
2023/07/16 00:46:04;;;;;;;6.63;6.03;;;;;;;17.72;100.00;95813.19;7404316;19;20404;-94
2023/07/16 00:48:31;;;;;;;6.27;5.67;;;;;;;16.47;100.00;95641.50;7403935;19;20416;-95
2023/07/16 00:51:01;;;;;;;7.20;6.50;;;;;;;17.08;100.00;95757.84;7404021;19;20404;-93
2023/07/16 00:53:29;;;;;;;6.60;6.00;;;;;;;17.47;100.00;95844.50;7405282;19;20536;-94
2023/07/16 00:55:57;;;;;;;7.80;6.37;;;;;;;16.67;100.00;95730.75;7404799;19;20474;-94
2023/07/16 00:58:24;;;;;;;7.40;6.67;;;;;;;17.44;100.00;95846.78;7404715;19;20418;-94
2023/07/16 01:00:51;;;;;;;7.47;6.70;;;;;;;16.44;100.00;95671.59;7405084;19;20387;-94
2023/07/16 01:03:19;;;;;;;5.77;5.20;;;;;;;17.48;100.00;95844.13;7406405;19;20393;-94
2023/07/16 01:05:52;;;;;;;6.80;6.20;;;;;;;17.48;100.00;95832.66;7405043;19;20396;-94
2023/07/16 01:09:03;;;;;;;6.40;5.90;;;;;;;16.39;100.00;95650.63;7403060;19;20395;-95
2023/07/16 01:11:32;;;;;;;6.80;6.20;;;;;;;17.40;100.00;95786.47;7404062;19;20465;-94
2023/07/16 01:14:03;;;;;;;7.07;6.37;;;;;;;16.88;100.00;95732.66;7405641;19;20397;-95
2023/07/16 01:16:33;;;;;;;6.93;6.33;;;;;;;16.29;100.00;95651.38;7404198;19;20369;-94
2023/07/16 01:19:03;;;;;;;7.13;6.30;;;;;;;17.31;100.00;95818.91;7406356;19;20385;-94
2023/07/16 01:22:07;;;;;;;7.33;6.73;;;;;;;18.34;100.00;95948.38;7407281;19;20392;-95
2023/07/16 01:24:39;;;;;;;7.47;5.90;;;;;;;18.65;100.00;95962.88;7408010;19;20386;-95
2023/07/16 01:27:42;;;;;;;7.27;6.60;;;;;;;17.34;100.00;95798.69;7403033;19;20415;-94
2023/07/16 01:30:15;;;;;;;5.73;5.30;;;;;;;18.64;100.00;95996.16;7405247;19;20930;-94
2023/07/16 01:32:45;;;;;;;7.23;6.30;;;;;;;18.43;100.00;95988.88;7402809;19;20887;-94
2023/07/16 01:35:13;;;;;;;6.47;5.87;;;;;;;17.04;100.00;95842.56;7404071;19;20412;-94
2023/07/16 01:37:41;;;;;;;8.00;6.87;;;;;;;16.99;100.00;95836.84;7402695;19;20436;-95
2023/07/16 01:40:21;;;;;;;6.77;6.17;;;;;;;16.84;100.00;95839.50;7404533;19;20386;-94
2023/07/16 01:42:53;;;;;;;6.63;6.13;;;;;;;18.14;100.00;96037.09;7404152;19;20903;-95
2023/07/16 01:45:27;;;;;;;6.60;6.00;;;;;;;16.57;100.00;95784.88;7405103;19;20392;-95
2023/07/16 01:48:09;;;;;;;6.40;5.80;;;;;;;16.25;100.00;95756.16;7402786;19;20423;-94
2023/07/16 01:50:37;;;;;;;7.83;6.00;;;;;;;17.46;100.00;95944.53;7404219;19;20397;-95
2023/07/16 01:53:08;;;;;;;7.87;7.13;;;;;;;18.11;100.00;96039.78;7402645;19;20402;-94
2023/07/16 01:55:35;;;;;;;6.80;6.20;;;;;;;17.24;100.00;95883.06;7402231;19;20385;-95
2023/07/16 01:58:09;;;;;;;7.80;7.00;;;;;;;16.93;100.00;95817.75;7402169;19;20492;-94
2023/07/16 02:00:41;;;;;;;6.80;6.20;;;;;;;17.53;100.00;95905.22;7402884;19;20382;-95
2023/07/16 02:03:11;;;;;;;5.50;4.93;;;;;;;17.36;100.00;95936.16;7403844;19;20818;-93
2023/07/16 02:05:43;;;;;;;6.83;6.10;;;;;;;17.92;100.00;96030.22;7402625;19;20381;-94
2023/07/16 02:08:10;;;;;;;6.20;5.47;;;;;;;17.68;100.00;95952.25;7404022;19;20804;-95
2023/07/16 02:10:38;;;;;;;6.13;5.27;;;;;;;17.48;100.00;95897.56;7403794;19;20421;-95
2023/07/16 02:13:11;;;;;;;5.60;5.20;;;;;;;17.47;100.00;95924.69;7401341;19;20369;-94
2023/07/16 02:15:39;;;;;;;6.30;5.57;;;;;;;17.70;100.00;95925.88;7403630;19;20408;-94
2023/07/16 02:18:07;;;;;;;5.37;4.97;;;;;;;17.80;100.00;95926.28;7405763;19;20410;-93
2023/07/16 02:20:34;;;;;;;5.80;5.30;;;;;;;18.04;100.00;95962.97;7410087;19;20488;-94
2023/07/16 02:23:02;;;;;;;7.70;5.80;;;;;;;17.59;100.00;95901.03;7408579;19;20398;-95
2023/07/16 02:25:33;;;;;;;6.30;5.70;;;;;;;16.60;100.00;95776.09;7410537;19;20409;-94
2023/07/16 02:28:00;;;;;;;5.70;5.10;;;;;;;17.80;100.00;95953.00;7406325;19;20449;-94
2023/07/16 02:30:29;;;;;;;5.10;4.70;;;;;;;17.88;100.00;95952.63;7410821;19;20396;-94
2023/07/16 02:32:58;;;;;;;7.00;5.37;;;;;;;18.75;100.00;96082.63;7409856;19;20740;-95
2023/07/16 02:35:27;;;;;;;4.87;4.37;;;;;;;17.20;100.00;95847.53;7412010;19;20412;-95
2023/07/16 02:37:55;;;;;;;5.20;4.77;;;;;;;17.96;100.00;95974.78;7407815;19;20773;-95
2023/07/16 02:40:22;;;;;;;8.33;5.77;;;;;;;18.24;100.00;96014.91;7413143;19;20399;-95
2023/07/16 02:42:49;;;;;;;4.70;4.30;;;;;;;18.07;100.00;95996.97;7431037;19;20418;-95
2023/07/16 02:45:18;;;;;;;5.10;4.60;;;;;;;17.98;100.00;95980.53;7429255;19;20385;-94
2023/07/16 02:47:45;;;;;;;4.50;4.10;;;;;;;17.99;100.00;95956.06;7412291;19;20432;-96
2023/07/16 02:50:15;;;;;;;4.23;3.93;;;;;;;16.97;100.00;95812.44;7411551;19;20410;-94
2023/07/16 02:52:47;;;;;;;4.67;4.30;;;;;;;17.99;100.00;95979.38;7412085;19;20404;-95
2023/07/16 02:55:17;;;;;;;4.17;3.87;;;;;;;18.04;100.00;95964.88;7415067;19;20401;-95
2023/07/16 02:57:46;;;;;;;8.83;4.40;;;;;;;18.10;100.00;95979.38;7411465;19;20493;-95
2023/07/16 03:00:14;;;;;;;8.80;4.50;;;;;;;18.48;100.00;96052.78;7409728;19;20389;-95
2023/07/16 03:02:42;;;;;;;4.60;4.30;;;;;;;18.30;100.00;96018.75;7433301;19;20390;-96
2023/07/16 03:05:13;;;;;;;5.13;4.20;;;;;;;17.71;100.00;95938.09;7434407;19;20411;-95
2023/07/16 03:07:47;;;;;;;3.70;3.40;;;;;;;18.25;100.00;96005.75;7410900;19;20470;-94
2023/07/16 03:10:22;;;;;;;8.27;4.17;;;;;;;17.11;100.00;95865.88;7410894;19;20900;-95
2023/07/16 03:12:59;;;;;;;5.27;3.70;;;;;;;18.15;100.00;96017.22;7410851;19;20410;-95
2023/07/16 03:15:30;;;;;;;5.57;4.43;;;;;;;17.98;100.00;95961.78;7412092;19;20378;-94
2023/07/16 03:18:00;;;;;;;5.40;4.70;;;;;;;16.83;100.00;95813.16;7415436;19;20498;-93
2023/07/16 03:20:32;;;;;;;3.60;3.40;;;;;;;17.74;100.00;95947.28;7420911;19;20413;-94
2023/07/16 03:23:02;;;;;;;4.97;4.60;;;;;;;16.69;100.00;95781.06;7419786;19;20740;-95
2023/07/16 03:25:39;;;;;;;4.37;4.07;;;;;;;18.33;100.00;96032.53;7420224;19;20390;-94
2023/07/16 03:28:09;;;;;;;4.70;4.20;;;;;;;18.11;100.00;95999.63;7411497;19;20415;-94
2023/07/16 03:30:49;;;;;;;7.03;4.20;;;;;;;16.71;100.00;95776.91;7411536;19;20393;-95
2023/07/16 03:33:18;;;;;;;4.20;3.90;;;;;;;18.62;100.00;96060.78;7410991;19;20404;-95
2023/07/16 03:35:50;;;;;;;4.80;4.40;;;;;;;18.62;100.00;96074.19;7410355;19;20385;-94
2023/07/16 03:38:18;;;;;;;4.43;4.03;;;;;;;17.81;100.00;95933.16;7405252;19;20429;-94
2023/07/16 03:40:49;;;;;;;5.57;5.03;;;;;;;16.75;100.00;95795.59;7407496;19;20743;-95
2023/07/16 03:43:19;;;;;;;5.70;4.10;;;;;;;17.69;100.00;95907.56;7413408;19;20389;-95
2023/07/16 03:45:51;;;;;;;6.40;5.90;;;;;;;16.78;100.00;95784.91;7410764;19;20381;-94
2023/07/16 03:48:19;;;;;;;5.53;5.07;;;;;;;18.06;100.00;95971.34;7411643;19;20416;-93
2023/07/16 03:50:49;;;;;;;5.03;4.53;;;;;;;16.81;100.00;95786.81;7411796;19;20441;-95
2023/07/16 03:53:18;;;;;;;4.43;4.03;;;;;;;18.77;100.00;96083.75;7411818;19;20389;-95
2023/07/16 03:55:50;;;;;;;4.20;3.90;;;;;;;16.86;100.00;95806.31;7408175;19;20386;-94
2023/07/16 03:58:18;;;;;;;4.83;4.43;;;;;;;17.75;100.00;95940.78;7408531;19;20420;-94
2023/07/16 04:00:48;;;;;;;5.00;4.50;;;;;;;17.77;100.00;95940.41;7408090;19;20390;-94
2023/07/16 04:03:18;;;;;;;4.30;4.00;;;;;;;17.99;100.00;95982.81;7405284;19;20405;-95
2023/07/16 04:05:49;;;;;;;4.70;4.30;;;;;;;18.64;100.00;96090.66;7406514;19;20381;-95
2023/07/16 04:08:19;;;;;;;3.73;3.53;;;;;;;17.96;100.00;95982.81;7409174;19;20425;-95
2023/07/16 04:10:47;;;;;;;4.20;3.90;;;;;;;17.72;100.00;95969.03;7411891;19;20393;-95
2023/07/16 04:13:16;;;;;;;5.50;4.00;;;;;;;17.31;100.00;95912.44;7405797;19;20382;-95
2023/07/16 04:15:43;;;;;;;4.30;4.00;;;;;;;17.88;100.00;96002.69;7403996;19;20400;-95
2023/07/16 04:18:10;;;;;;;5.40;4.37;;;;;;;16.71;100.00;95837.53;7401068;19;20428;-94
2023/07/16 04:20:41;;;;;;;4.40;3.20;;;;;;;16.70;100.00;95820.78;7406865;19;20391;-95
2023/07/16 04:23:08;;;;;;;4.93;4.03;;;;;;;18.35;100.00;96065.78;7402675;19;20935;-94
2023/07/16 04:25:36;;;;;;;4.70;4.30;;;;;;;18.30;100.00;96066.94;7405882;19;20409;-94
2023/07/16 04:28:05;;;;;;;3.93;3.63;;;;;;;17.85;100.00;96001.53;7399626;19;20413;-93
2023/07/16 04:30:32;;;;;;;4.50;4.20;;;;;;;18.45;100.00;96091.03;7402837;19;20493;-95
2023/07/16 04:33:00;;;;;;;4.83;4.20;;;;;;;17.84;100.00;96000.00;7405409;19;20393;-94
2023/07/16 04:35:27;;;;;;;4.03;3.63;;;;;;;17.93;100.00;96023.72;7403009;19;20947;-95
2023/07/16 04:37:54;;;;;;;4.03;3.70;;;;;;;16.92;100.00;95915.03;7397049;19;20412;-94
2023/07/16 04:40:22;;;;;;;4.03;3.30;;;;;;;17.23;100.00;95998.31;7400400;19;20373;-95
2023/07/16 04:42:49;;;;;;;5.20;3.20;;;;;;;18.27;100.00;96171.31;7401138;19;20419;-94
2023/07/16 04:45:16;;;;;;;3.13;2.80;;;;;;;16.62;100.00;95938.53;7401997;19;20399;-95
2023/07/16 04:47:43;;;;;;;3.80;3.17;;;;;;;16.69;100.00;95978.63;7397748;19;20963;-95
2023/07/16 04:50:10;;;;;;;3.03;2.83;;;;;;;16.99;100.00;96037.16;7401272;19;20505;-94
2023/07/16 04:52:38;;;;;;;3.20;2.90;;;;;;;16.80;100.00;96000.81;7399589;19;20417;-95
2023/07/16 04:55:05;;;;;;;2.60;2.40;;;;;;;17.26;100.00;96099.13;7401774;19;20389;-94
2023/07/16 04:57:33;;;;;;;2.97;2.77;;;;;;;16.06;100.00;95937.06;7398163;19;20427;-95
2023/07/16 05:00:00;;;;;;;3.20;2.90;;;;;;;16.98;100.00;96060.44;7400029;19;20391;-95
2023/07/16 05:02:28;;;;;;;2.80;2.60;;;;;;;17.04;100.00;96092.91;7400162;19;20384;-95
2023/07/16 05:04:55;;;;;;;2.60;2.40;;;;;;;16.24;100.00;95985.97;7400779;19;20398;-95
2023/07/16 05:07:22;;;;;;;4.60;3.10;;;;;;;17.05;100.00;96099.75;7407507;19;20421;-94
2023/07/16 05:09:50;;;;;;;3.43;2.90;;;;;;;17.62;100.00;96177.56;7411778;19;20410;-95
2023/07/16 05:12:18;;;;;;;3.83;2.87;;;;;;;16.73;100.00;96057.63;7399772;19;20888;-95
2023/07/16 05:14:47;;;;;;;4.63;3.00;;;;;;;16.22;100.00;95967.66;7402626;19;20536;-95
2023/07/16 05:17:15;;;;;;;2.80;2.60;;;;;;;17.16;100.00;96129.97;7400180;19;20420;-95
2023/07/16 05:19:42;;;;;;;4.00;3.10;;;;;;;15.87;100.00;95922.06;7398650;19;20389;-95
2023/07/16 05:22:10;;;;;;;2.90;2.33;;;;;;;16.99;100.00;96107.38;7401253;19;20419;-94
2023/07/16 05:24:37;;;;;;;3.20;2.90;;;;;;;17.72;100.00;96208.97;7398069;19;20874;-95
2023/07/16 05:27:05;;;;;;;2.73;2.53;;;;;;;17.33;100.00;96165.97;7398549;19;20436;-94
2023/07/16 05:29:32;;;;;;;3.23;2.93;;;;;;;17.06;100.00;96131.44;7397177;19;20460;-95
2023/07/16 05:31:59;;;;;;;4.30;3.30;;;;;;;17.11;100.00;96117.00;7400347;19;20381;-94
2023/07/16 05:34:30;;;;;;;3.40;3.20;;;;;;;16.09;100.00;95976.34;7401893;19;20484;-95
2023/07/16 05:36:57;;;;;;;3.63;2.70;;;;;;;16.32;100.00;96013.47;7400110;19;20412;-95
2023/07/16 05:39:25;;;;;;;3.50;3.20;;;;;;;17.85;100.00;96225.47;7399204;19;20400;-95
2023/07/16 05:41:53;;;;;;;2.67;2.47;;;;;;;16.90;100.00;96080.22;7402129;19;20388;-95
2023/07/16 05:44:20;;;;;;;2.43;2.23;;;;;;;15.98;100.00;95946.16;7400166;19;20414;-94
2023/07/16 05:46:47;;;;;;;2.37;2.17;;;;;;;16.84;100.00;96105.75;7402036;19;20450;-94
2023/07/16 05:49:14;;;;;;;2.33;2.13;;;;;;;17.45;100.00;96192.38;7401428;19;20885;-95
2023/07/16 05:51:42;;;;;;;3.73;3.23;;;;;;;16.99;100.00;96150.13;7405789;19;20388;-95
2023/07/16 05:54:09;;;;;;;4.37;3.10;;;;;;;17.57;100.00;96239.41;7405860;19;20385;-95
2023/07/16 05:56:36;;;;;;;4.23;3.97;;;;;;;16.82;100.00;96138.16;7406060;19;20369;-95
2023/07/16 05:59:03;;;;;;;3.10;2.80;;;;;;;17.80;100.00;96309.50;7405455;19;20454;-94
2023/07/16 06:01:31;;;;;;;2.90;2.60;;;;;;;17.45;100.00;96245.84;7407623;19;20391;-94
2023/07/16 06:03:58;;;;;;;2.50;2.27;;;;;;;17.53;100.00;96276.06;7404796;19;20412;-94
2023/07/16 06:06:27;;;;;;;3.67;2.87;;;;;;;17.22;100.00;96221.25;7408114;19;20734;-94
2023/07/16 06:08:54;;;;;;;2.40;2.20;;;;;;;17.66;100.00;96296.00;7407902;19;20410;-94
2023/07/16 06:11:21;;;;;;;2.50;2.30;;;;;;;16.89;100.00;96179.41;7407124;19;20380;-94
2023/07/16 06:13:48;;;;;;;3.20;2.73;;;;;;;16.37;100.00;96109.94;7405515;19;20384;-94
2023/07/16 06:16:15;;;;;;;5.17;2.33;;;;;;;17.16;100.00;96236.09;7406561;19;20384;-94
2023/07/16 06:21:39;;;;;;;3.33;2.20;;;;;;;16.19;100.00;96146.38;7383534;19;20459;-91
2023/07/16 06:24:07;;;;;;;2.27;2.13;;;;;;;15.83;100.00;96091.91;7405537;19;20373;-90
2023/07/16 06:26:47;;;;;;;2.63;2.43;;;;;;;16.67;100.00;96215.81;7405222;19;20795;-91
2023/07/16 06:29:21;;;;;;;5.13;2.40;;;;;;;16.00;100.00;96103.88;7407123;19;20407;-92
2023/07/16 06:32:14;;;;;;;2.67;2.03;;;;;;;16.65;100.00;96183.38;7407995;19;20448;-91
2023/07/16 06:35:10;;;;;;;3.23;2.43;;;;;;;16.80;100.00;96191.16;7405657;19;20918;-92
2023/07/16 06:38:00;;;;;;;4.03;2.90;;;;;;;17.83;100.00;96321.38;7404107;19;20387;-91
2023/07/16 06:40:54;;;;;;;3.10;2.80;;;;;;;17.66;100.00;96258.59;7407031;19;20425;-91
2023/07/16 06:43:33;;;;;;;3.47;2.77;;;;;;;17.51;100.00;96217.63;7406666;19;20388;-92
2023/07/16 06:46:12;;;;;;;2.80;1.87;;;;;;;17.77;100.00;96262.13;7403391;19;20388;-91
2023/07/16 06:48:59;;;;;;;2.37;2.17;;;;;;;16.70;100.00;96108.34;7421124;19;20497;-93
2023/07/16 06:51:37;;;;;;;6.60;2.27;;;;;;;17.35;100.00;96185.81;7424570;19;20413;-92
2023/07/16 06:54:19;;;;;;;6.90;2.57;;;;;;;17.51;100.00;96208.84;7407639;19;20391;-91
2023/07/16 06:56:57;;;;;;;7.13;2.73;;;;;;;17.40;100.00;96214.88;7409109;19;20916;-92
2023/07/16 06:59:37;;;;;;;3.70;2.20;;;;;;;17.40;100.00;96225.59;7417287;19;20421;-93
2023/07/16 07:02:22;;;;;;;2.87;2.10;;;;;;;16.76;100.00;96139.66;7419296;19;20400;-91
2023/07/16 07:04:59;;;;;;;3.03;2.53;;;;;;;16.85;100.00;96139.34;7420195;19;20402;-92
2023/07/16 07:08:02;;;;;;;3.40;2.50;;;;;;;16.97;100.00;96157.75;7405117;19;20377;-92
2023/07/16 07:11:03;;;;;;;3.53;2.50;;;;;;;18.31;100.00;96362.94;7404592;19;20460;-92
2023/07/16 07:13:42;;;;;;;2.33;2.13;;;;;;;16.90;100.00;96168.34;7404923;19;20395;-92
2023/07/16 07:16:34;;;;;;;3.43;2.10;;;;;;;16.79;100.00;96165.59;7403750;19;20421;-92
2023/07/16 07:19:09;;;;;;;3.20;2.70;;;;;;;16.55;100.00;96139.44;7405495;19;20438;-91
2023/07/16 07:21:51;;;;;;;3.63;2.43;;;;;;;17.79;100.00;96317.91;7415625;19;20415;-94
2023/07/16 07:24:49;;;;;;;4.67;3.10;;;;;;;18.10;100.00;96372.75;7433508;19;20416;-94
2023/07/16 07:27:28;;;;;;;2.77;2.53;;;;;;;16.61;100.00;96146.00;7436768;19;20386;-94
2023/07/16 07:30:10;;;;;;;3.20;2.90;;;;;;;17.81;100.00;96353.84;7435355;19;20399;-94
2023/07/16 07:33:05;;;;;;;3.37;3.07;;;;;;;17.81;100.00;96363.78;7430981;19;20401;-92
2023/07/16 07:35:39;;;;;;;2.43;2.23;;;;;;;16.40;100.00;96154.56;7417162;19;20391;-92
2023/07/16 07:38:24;;;;;;;4.63;2.67;;;;;;;16.83;100.00;96240.44;7415985;19;20416;-92
2023/07/16 07:41:02;;;;;;;5.57;3.10;;;;;;;17.29;100.00;96304.91;7414277;19;20388;-91
2023/07/16 07:43:34;;;;;;;4.70;2.60;;;;;;;16.73;100.00;96241.09;7406872;19;20378;-92
2023/07/16 07:46:16;;;;;;;4.30;2.47;;;;;;;16.27;100.00;96159.41;7406635;19;20916;-91
2023/07/16 07:48:51;;;;;;;6.30;2.97;;;;;;;17.97;100.00;96382.97;7408987;19;20458;-92
2023/07/16 07:51:51;;;;;;;4.33;2.90;;;;;;;16.70;100.00;96165.16;7410965;19;20425;-92
2023/07/16 07:55:00;;;;;;;3.93;3.00;;;;;;;17.06;100.00;96158.16;7408105;19;20414;-91
2023/07/16 07:57:43;;;;;;;6.93;2.30;;;;;;;18.45;100.00;96369.50;7408424;19;20395;-92
2023/07/16 08:00:28;;;;;;;7.40;2.43;;;;;;;17.37;100.00;96254.97;7406278;19;20373;-92
2023/07/16 08:03:01;;;;;;;4.93;2.90;;;;;;;17.54;100.00;96283.72;7410024;19;20387;-92
2023/07/16 08:05:53;;;;;;;5.90;2.30;;;;;;;16.91;100.00;96204.63;7406338;19;20911;-92
2023/07/16 08:11:33;;;;;;;6.90;2.73;;;;;;;17.78;100.00;96301.09;7412092;19;20389;-91
2023/07/16 08:14:07;;;;;;;3.40;3.10;;;;;;;17.85;100.00;96313.72;7416294;19;20391;-92
2023/07/16 08:17:07;;;;;;;6.80;3.87;;;;;;;17.83;100.00;96308.75;7409038;19;20384;-92
2023/07/16 08:20:00;;;;;;;;;;;;;;;;;;;;;
2023/07/16 08:22:45;;;;;;;6.00;3.20;;;;;;;17.98;100.00;96302.34;7432802;19;20408;-93
2023/07/16 08:25:32;;;;;;;6.63;2.80;;;;;;;17.30;100.00;96198.78;7425275;19;20372;-93
2023/07/16 08:28:23;;;;;;;3.50;2.57;;;;;;;18.55;100.00;96401.66;7426492;19;20427;-95
2023/07/16 08:31:23;;;;;;;7.10;5.10;;;;;;;18.67;100.00;96397.13;7425262;19;20385;-93
2023/07/16 08:34:23;;;;;;;4.43;3.27;;;;;;;17.86;100.00;96272.47;7430153;19;20411;-93
2023/07/16 09:03:21;;;;;;;5.23;2.40;;;;;;;18.59;100.00;96332.06;6184114;19;3168454;-92
2023/07/16 09:06:11;;;;;;;5.50;3.27;;;;;;;19.07;100.00;96425.59;7441791;19;20141;-92
2023/07/16 09:08:59;;;;;;;3.60;2.90;;;;;;;17.76;100.00;96223.09;7458282;19;20455;-94
2023/07/16 09:11:49;;;;;;;3.37;2.77;;;;;;;18.14;100.00;96290.56;7456822;19;20378;-94
2023/07/16 09:14:34;;;;;;;3.37;2.63;;;;;;;19.14;100.00;96434.44;7456626;19;20413;-92
2023/07/16 09:17:16;;;;;;;7.57;3.10;;;;;;;19.41;100.00;96437.56;7443333;19;20377;-92
2023/07/16 09:20:06;;;;;;;4.80;3.13;;;;;;;17.97;100.00;96273.28;7447155;19;20430;-92
2023/07/16 09:22:47;;;;;;;4.93;3.10;;;;;;;18.00;100.00;96297.38;7446642;19;20429;-91
2023/07/16 09:25:39;;;;;;;9.67;4.00;;;;;;;17.73;100.00;96226.53;7445107;19;20392;-92
2023/07/16 09:28:13;;;;;;;5.67;3.90;;;;;;;18.50;100.00;96316.31;7449157;19;20412;-94
2023/07/16 09:30:55;;;;;;;7.60;2.80;;;;;;;17.67;100.00;96228.78;7444125;19;20380;-93
2023/07/16 09:33:40;;;;;;;5.43;3.20;;;;;;;18.76;100.00;96440.44;7459506;19;20388;-94
2023/07/16 09:36:32;;;;;;;8.17;3.10;;;;;;;18.17;100.00;96312.00;7458194;19;20426;-93
2023/07/16 09:39:25;;;;;;;3.10;2.70;;;;;;;19.17;100.00;96443.63;7460036;19;20433;-95
2023/07/16 09:42:07;;;;;;;3.30;3.00;;;;;;;18.36;100.00;96320.88;7464621;19;20384;-95
2023/07/16 09:44:59;;;;;;;3.50;2.37;;;;;;;18.52;100.00;96346.16;7462260;19;20389;-95
2023/07/16 09:47:34;;;;;;;3.27;2.80;;;;;;;18.89;100.00;96350.53;7448765;19;20385;-95
2023/07/16 09:50:31;;;;;;;5.20;3.07;;;;;;;18.80;100.00;96307.25;7437183;19;20398;-95
2023/07/16 09:53:19;;;;;;;3.80;2.70;;;;;;;18.75;100.00;96304.94;7437598;19;20378;-95
2023/07/16 09:56:03;;;;;;;4.03;2.63;;;;;;;18.33;100.00;96222.56;7435608;19;20375;-96
2023/07/16 09:58:42;;;;;;;6.90;2.90;;;;;;;19.62;100.00;96419.97;7418280;19;20426;-94
2023/07/16 10:01:14;;;;;;;2.70;2.23;;;;;;;18.35;100.00;96234.44;7426738;19;20773;-94
2023/07/16 10:03:52;;;;;;;4.13;2.50;;;;;;;19.70;100.00;96352.53;7426500;19;20403;-93
2023/07/16 10:07:05;;;;;;;5.07;2.80;;;;;;;20.12;100.00;96417.28;7422047;19;20757;-93
2023/07/16 10:09:49;;;;;;;4.60;2.80;;;;;;;19.24;100.00;96296.22;7425081;19;20419;-93
2023/07/16 10:12:29;;;;;;;4.63;2.13;;;;;;;19.07;100.00;96291.59;7423046;19;20461;-93
2023/07/16 10:15:27;;;;;;;7.83;2.93;;;;;;;20.18;100.00;96367.44;7424316;19;20408;-93
2023/07/16 10:18:04;;;;;;;6.17;2.70;;;;;;;19.99;100.00;96313.00;7414718;19;20394;-93
2023/07/16 10:20:43;;;;;;;2.97;2.40;;;;;;;19.74;100.00;96286.22;7415631;19;20392;-93
2023/07/16 10:23:25;;;;;;;5.43;2.20;;;;;;;19.26;100.00;96180.53;7419456;19;20452;-92
2023/07/16 10:26:20;;;;;;;4.20;2.20;;;;;;;20.53;100.00;96417.59;7417545;19;20371;-92
2023/07/16 10:29:14;;;;;;;8.60;2.67;;;;;;;20.46;100.00;96423.78;7421486;19;20438;-93
2023/07/16 10:31:48;;;;;;;3.77;2.83;;;;;;;20.21;100.00;96339.78;7426071;19;20387;-93
2023/07/16 10:34:40;;;;;;;6.80;2.73;;;;;;;20.35;100.00;96294.84;7432750;19;20406;-93
2023/07/16 10:37:41;;;;;;;4.70;2.60;;;;;;;19.77;100.00;96260.53;7431060;19;20391;-93
2023/07/16 10:40:32;;;;;;;5.43;2.50;;;;;;;20.62;100.00;96424.13;7419486;19;20391;-93
2023/07/16 10:43:27;;;;;;;8.30;2.73;;;;;;;19.43;100.00;96214.59;7426063;19;20433;-93
2023/07/16 10:46:02;;;;;;;5.50;2.97;;;;;;;21.61;100.00;96426.69;7422249;19;20384;-92
2023/07/16 10:48:35;;;;;;;5.83;3.17;;;;;;;21.81;100.00;96425.78;7410329;19;20422;-92
2023/07/16 10:51:02;;;;;;;3.03;2.70;;;;;;;20.43;100.00;96251.84;7409089;19;20422;-91
2023/07/16 10:53:29;;;;;;;4.10;2.23;;;;;;;20.68;100.00;96300.84;7403585;19;20412;-94
2023/07/16 10:55:59;;;;;;;4.23;3.30;;;;;;;19.90;100.00;96228.66;7403651;19;20736;-94
2023/07/16 10:58:26;;;;;;;2.30;2.10;;;;;;;20.99;100.00;96304.53;7402272;19;20428;-93
2023/07/16 11:00:53;;;;;;;4.87;2.77;;;;;;;21.52;100.00;96376.03;7399076;19;20393;-93
2023/07/16 11:03:20;;;;;;;7.20;2.63;;;;;;;21.26;100.00;96330.88;7405267;19;20911;-92
2023/07/16 11:05:47;;;;;;;2.80;2.20;;;;;;;21.22;100.00;96350.44;7401570;19;20740;-92
2023/07/16 11:08:24;;;;;;;4.60;2.60;;;;;;;21.17;100.00;96414.66;7402821;19;20977;-92
2023/07/16 11:10:57;;;;;;;5.27;2.20;;;;;;;20.48;100.00;96380.41;7404431;19;20397;-93
2023/07/16 11:13:30;;;;;;;3.87;2.67;;;;;;;21.43;100.00;96399.91;7401687;19;20410;-93
2023/07/16 11:16:07;;;;;;;3.37;2.90;;;;;;;21.05;100.00;96313.69;7402316;19;20879;-92
2023/07/16 11:18:35;;;;;;;3.53;2.80;;;;;;;22.51;100.00;96420.16;7403062;19;20433;-92
2023/07/16 11:21:03;;;;;;;3.03;2.73;;;;;;;21.88;100.00;96389.19;7405498;19;20745;-92
2023/07/16 11:23:34;;;;;;;3.10;2.50;;;;;;;20.80;100.00;96294.25;7403972;19;20395;-93
2023/07/16 11:26:03;;;;;;;3.40;3.10;;;;;;;20.88;100.00;96333.41;7408945;19;20394;-94
2023/07/16 11:28:56;;;;;;;2.63;2.40;;;;;;;20.71;100.00;96359.22;7419094;19;20419;-92
2023/07/16 11:31:24;;;;;;;3.40;3.10;;;;;;;21.16;100.00;96405.06;7419203;19;20399;-94
2023/07/16 11:33:51;;;;;;;6.37;2.83;;;;;;;21.16;100.00;96348.59;7407946;19;20385;-93
2023/07/16 11:36:21;;;;;;;3.60;2.70;;;;;;;21.26;100.00;96301.28;7420051;19;20379;-93
2023/07/16 11:38:49;;;;;;;3.53;2.23;;;;;;;22.46;100.00;96417.91;7419088;19;20425;-93
2023/07/16 11:41:20;;;;;;;2.80;2.60;;;;;;;21.60;100.00;96309.44;7405518;19;20442;-93
2023/07/16 11:43:47;;;;;;;6.77;3.10;;;;;;;22.15;100.00;96410.88;7408807;19;20405;-93
2023/07/16 11:46:16;;;;;;;2.90;2.10;;;;;;;21.58;100.00;96385.19;7408536;19;20406;-93
2023/07/16 11:48:44;;;;;;;6.07;2.60;;;;;;;21.61;100.00;96402.47;7416378;19;20437;-93
2023/07/16 11:51:12;;;;;;;7.70;2.70;;;;;;;22.09;100.00;96414.03;7412564;19;20409;-93
2023/07/16 11:53:42;;;;;;;3.80;2.40;;;;;;;21.15;100.00;96277.91;7412208;19;20481;-94
2023/07/16 11:56:09;;;;;;;3.70;2.67;;;;;;;21.31;100.00;96279.34;7413069;19;20395;-94
2023/07/16 11:58:36;;;;;;;3.30;3.00;;;;;;;21.37;100.00;96258.91;7410670;19;20437;-93
2023/07/16 12:01:03;;;;;;;12.40;4.53;;;;;;;22.48;100.00;96399.41;7408559;19;20414;-94
2023/07/16 12:03:32;;;;;;;7.47;2.90;;;;;;;20.65;100.00;96194.94;7406326;19;20398;-94
2023/07/16 12:06:02;;;;;;;5.37;2.80;;;;;;;22.59;100.00;96410.06;7411436;19;20384;-94
2023/07/16 12:08:29;;;;;;;3.60;2.50;;;;;;;22.56;99.29;96379.25;7403359;19;20464;-93
2023/07/16 12:10:56;;;;;;;5.20;3.50;;;;;;;23.00;95.06;96405.34;7404764;19;20398;-92
2023/07/16 12:13:30;;;;;;;2.80;2.47;;;;;;;22.82;96.58;96369.72;7405638;19;20392;-92
2023/07/16 12:15:57;;;;;;;4.60;2.87;;;;;;;23.45;92.45;96318.72;7410662;19;20452;-94
2023/07/16 12:18:24;;;;;;;6.20;2.33;;;;;;;23.68;88.20;96388.19;7401128;19;20427;-93
2023/07/16 12:20:52;;;;;;;8.67;2.80;;;;;;;23.31;93.19;96386.41;7407509;19;20379;-93
2023/07/16 13:00:27;;;;;;;4.43;2.67;;;;;;;23.88;86.39;96396.34;7399078;19;20441;-94
2023/07/16 13:03:21;;;;;;;5.13;2.83;;;;;;;22.88;88.16;96237.94;7414814;19;20415;-93
2023/07/16 13:06:28;;;;;;;6.77;4.67;;;;;;;22.03;89.95;96156.28;7423266;19;20384;-94
2023/07/16 13:09:37;;;;;;;3.50;3.20;;;;;;;21.75;91.24;96232.78;7421497;19;20393;-95
2023/07/16 13:12:49;;;;;;;4.80;4.40;;;;;;;22.63;94.29;96395.38;7419367;19;20397;-95
2023/07/16 13:16:07;;;;;;;3.97;3.23;;;;;;;21.44;94.50;96207.75;7423604;19;20395;-95
2023/07/16 13:19:30;;;;;;;3.67;3.00;;;;;;;21.81;93.98;96223.13;7418742;19;20431;-95
2023/07/16 13:22:46;;;;;;;3.10;2.63;;;;;;;21.48;91.64;96109.66;7423824;19;20440;-95
2023/07/16 13:25:52;;;;;;;3.23;2.73;;;;;;;21.00;93.15;96090.97;7433223;19;20377;-95
2023/07/16 13:28:32;;;;;;;2.97;2.67;;;;;;;21.45;91.52;96109.72;7431458;19;20371;-95
2023/07/16 13:34:48;;;;;;;;;;;;;;;;;;;;;
2023/07/16 13:38:01;;;;;;;3.10;2.57;;;;;;;22.05;98.66;96234.78;7427920;19;20392;-95
2023/07/16 13:41:16;;;;;;;6.50;2.30;;;;;;;22.17;93.22;96148.06;7429700;19;20383;-96
2023/07/16 13:55:47;;;;;;;16.80;14.83;;;;;;;25.53;80.04;96403.56;7330018;19;20466;-94
2023/07/16 13:58:40;;;;;;;4.93;2.90;;;;;;;25.03;82.79;96371.44;7432055;19;20399;-94
2023/07/16 14:01:54;;;;;;;4.90;2.33;;;;;;;25.93;79.36;96382.50;7434991;19;20398;-96
2023/07/16 14:05:01;;;;;;;6.67;4.27;;;;;;;25.88;77.58;96396.56;7433179;19;20422;-95
2023/07/16 14:07:55;;;;;;;3.80;2.77;;;;;;;25.22;77.91;96258.88;7427516;19;20406;-93